Time;durP1;ratioP1;P1;durP2;ratioP2;P2;SDS_P1;SDS_P2;PMS_P1;PMS_P2;Temp;Humidity;BMP_temperature;BMP_pressure;BME280_temperature;BME280_humidity;BME280_pressure;Samples;Min_cycle;Max_cycle;Signal;HPM_P1;HPM_P2
2021/03/23 00:01:57;;;;;;;42.85;23.23;;;22.70;26.80;;;;;;6100223;28;85701;-64
2021/03/23 00:04:57;;;;;;;46.10;22.83;;;22.60;27.10;;;;;;6061900;28;82941;-65
2021/03/23 00:07:58;;;;;;;44.90;22.52;;;22.70;26.90;;;;;;6094047;28;83430;-64
2021/03/23 00:10:59;;;;;;;45.88;23.42;;;22.70;26.80;;;;;;6102026;28;83390;-65
2021/03/23 00:13:59;;;;;;;44.00;22.33;;;22.60;27.00;;;;;;6099668;28;84205;-64
2021/03/23 00:17:00;;;;;;;44.88;22.85;;;22.60;26.90;;;;;;6101994;28;83592;-65
2021/03/23 00:20:01;;;;;;;41.85;21.58;;;22.60;27.00;;;;;;6100415;28;83535;-64
2021/03/23 00:23:01;;;;;;;45.58;22.65;;;22.60;26.90;;;;;;6102097;28;83370;-64
2021/03/23 00:26:02;;;;;;;45.05;22.35;;;22.60;27.00;;;;;;6102958;28;85951;-65
2021/03/23 00:29:02;;;;;;;43.17;22.30;;;22.60;27.70;;;;;;6100735;28;83417;-64
2021/03/23 00:32:03;;;;;;;44.10;22.70;;;22.60;27.00;;;;;;6098713;28;82997;-64
2021/03/23 00:35:04;;;;;;;42.25;20.80;;;22.60;27.20;;;;;;6100159;28;83933;-65
2021/03/23 00:38:04;;;;;;;48.17;23.33;;;22.50;26.90;;;;;;6100802;28;83154;-64
2021/03/23 00:41:05;;;;;;;42.17;20.65;;;22.60;27.00;;;;;;6098232;28;83636;-64
2021/03/23 00:44:05;;;;;;;43.85;21.98;;;22.60;26.90;;;;;;6104672;28;84277;-64
2021/03/23 00:47:06;;;;;;;49.78;24.08;;;22.50;27.20;;;;;;6096877;28;84318;-64
2021/03/23 00:50:06;;;;;;;41.28;21.77;;;22.50;26.90;;;;;;6076455;28;85656;-64
2021/03/23 00:53:07;;;;;;;42.95;22.45;;;22.60;27.00;;;;;;6075999;28;85920;-64
2021/03/23 00:56:08;;;;;;;41.60;20.92;;;22.50;27.00;;;;;;6082137;28;84535;-64
2021/03/23 00:59:08;;;;;;;46.22;23.10;;;22.50;27.20;;;;;;6100215;28;83096;-64
2021/03/23 01:02:09;;;;;;;41.35;22.63;;;22.50;27.00;;;;;;6075661;28;83842;-64
2021/03/23 01:05:10;;;;;;;49.85;23.70;;;22.50;26.90;;;;;;6097499;28;84048;-64
2021/03/23 01:08:10;;;;;;;46.85;22.48;;;22.60;27.00;;;;;;6098906;28;83900;-64
2021/03/23 01:11:11;;;;;;;48.35;22.58;;;22.50;26.90;;;;;;6102107;28;83979;-64
2021/03/23 01:14:11;;;;;;;44.83;23.13;;;22.50;27.50;;;;;;6096503;28;82932;-63
2021/03/23 01:17:12;;;;;;;48.83;23.63;;;22.50;26.90;;;;;;6101370;28;85230;-63
2021/03/23 01:20:13;;;;;;;43.15;22.33;;;22.50;27.00;;;;;;6100845;28;83299;-63
2021/03/23 01:23:14;;;;;;;45.95;22.27;;;22.50;27.40;;;;;;6102297;28;83751;-64
2021/03/23 01:26:14;;;;;;;49.35;24.50;;;22.50;26.90;;;;;;6099807;28;83420;-63
2021/03/23 01:29:15;;;;;;;47.95;23.75;;;22.50;26.90;;;;;;6099899;28;83677;-63
2021/03/23 01:32:16;;;;;;;44.20;23.35;;;22.50;26.90;;;;;;6096676;28;84075;-63
2021/03/23 01:35:16;;;;;;;46.25;23.33;;;22.50;27.30;;;;;;6102937;28;83526;-63
2021/03/23 01:38:17;;;;;;;52.17;23.58;;;22.50;26.90;;;;;;6105897;28;84440;-63
2021/03/23 01:41:17;;;;;;;44.17;22.30;;;22.50;26.90;;;;;;6101862;28;84212;-64
2021/03/23 01:44:18;;;;;;;45.03;21.63;;;22.50;27.00;;;;;;6103969;28;83478;-63
2021/03/23 01:47:18;;;;;;;48.45;24.15;;;22.50;27.00;;;;;;6104071;28;83348;-64
2021/03/23 01:50:19;;;;;;;47.70;23.83;;;22.50;26.90;;;;;;6096144;28;83205;-63
2021/03/23 01:53:20;;;;;;;47.15;23.23;;;22.50;26.90;;;;;;6104579;28;85197;-63
2021/03/23 01:56:20;;;;;;;45.10;22.67;;;22.50;26.90;;;;;;6102427;28;83745;-64
2021/03/23 01:59:22;;;;;;;44.95;23.60;;;22.40;27.10;;;;;;6092785;28;90839;-63
2021/03/23 02:02:23;;;;;;;51.08;22.70;;;22.50;26.90;;;;;;6100344;28;83488;-63
2021/03/23 02:05:23;;;;;;;47.97;24.92;;;22.50;26.90;;;;;;6104602;28;83010;-64
2021/03/23 02:08:24;;;;;;;45.22;23.45;;;22.40;26.90;;;;;;6068628;28;85356;-64
2021/03/23 02:11:25;;;;;;;44.47;22.58;;;22.40;26.80;;;;;;6102289;28;83459;-64
2021/03/23 02:14:25;;;;;;;43.08;21.48;;;22.40;27.00;;;;;;6104812;28;83969;-63
2021/03/23 02:17:26;;;;;;;41.33;22.05;;;22.50;27.00;;;;;;6101118;28;84939;-64
2021/03/23 02:20:27;;;;;;;44.33;22.40;;;22.40;26.80;;;;;;6094196;28;83767;-64
2021/03/23 02:23:27;;;;;;;42.10;22.25;;;22.40;26.90;;;;;;6102657;28;83698;-64
2021/03/23 02:26:28;;;;;;;40.58;20.70;;;22.40;27.00;;;;;;6101215;28;83710;-63
2021/03/23 02:29:29;;;;;;;43.40;21.08;;;22.40;26.90;;;;;;6108051;28;83484;-64
2021/03/23 02:32:30;;;;;;;46.80;21.45;;;22.40;26.90;;;;;;6086337;28;83146;-64
2021/03/23 02:35:31;;;;;;;39.83;19.77;;;22.40;27.10;;;;;;6098328;28;85800;-64
2021/03/23 02:38:31;;;;;;;39.55;19.75;;;22.40;26.90;;;;;;6101985;28;83496;-64
2021/03/23 02:41:32;;;;;;;40.13;19.25;;;22.40;26.90;;;;;;6096668;28;83176;-63
2021/03/23 02:44:32;;;;;;;39.75;19.75;;;22.40;27.00;;;;;;6094699;28;83514;-63
2021/03/23 02:47:33;;;;;;;36.85;18.77;;;22.40;27.00;;;;;;6101875;28;86544;-62
2021/03/23 02:50:33;;;;;;;34.75;17.75;;;22.40;27.70;;;;;;6105172;28;83540;-63
2021/03/23 02:53:34;;;;;;;36.40;17.98;;;22.50;27.30;;;;;;6095320;28;84757;-63
2021/03/23 02:56:34;;;;;;;35.05;17.58;;;22.40;27.20;;;;;;6105839;28;82940;-63
2021/03/23 02:59:35;;;;;;;33.65;16.83;;;22.40;27.20;;;;;;6097905;28;84183;-63
2021/03/23 03:02:36;;;;;;;35.28;18.05;;;22.40;27.20;;;;;;6096665;28;82980;-64
2021/03/23 03:05:37;;;;;;;35.42;17.20;;;22.40;27.20;;;;;;6096566;28;85355;-64
2021/03/23 03:08:37;;;;;;;33.60;16.77;;;22.40;27.20;;;;;;6101161;28;83039;-64
2021/03/23 03:11:38;;;;;;;33.55;16.90;;;22.40;27.30;;;;;;6107402;28;85724;-65
2021/03/23 03:14:39;;;;;;;33.70;17.10;;;22.40;27.30;;;;;;6103484;28;84412;-64
2021/03/23 03:17:39;;;;;;;30.83;16.15;;;22.40;27.40;;;;;;6075163;28;84389;-64
2021/03/23 03:20:40;;;;;;;31.58;16.38;;;22.40;27.30;;;;;;6101731;28;83296;-64
2021/03/23 03:23:40;;;;;;;28.55;16.10;;;22.40;27.40;;;;;;6103748;28;83301;-64
2021/03/23 03:26:41;;;;;;;32.90;16.33;;;22.40;27.90;;;;;;6103397;28;83276;-64
2021/03/23 03:29:41;;;;;;;32.20;16.25;;;22.40;27.40;;;;;;6102692;28;84037;-64
2021/03/23 03:32:42;;;;;;;32.60;16.35;;;22.40;27.40;;;;;;6101122;28;85728;-64
2021/03/23 03:35:42;;;;;;;31.23;16.17;;;22.40;27.40;;;;;;6101392;28;83809;-64
2021/03/23 03:38:43;;;;;;;31.17;15.57;;;22.40;27.40;;;;;;6101871;28;83430;-64
2021/03/23 03:41:44;;;;;;;30.15;15.35;;;22.40;27.30;;;;;;6079379;28;85721;-65
2021/03/23 03:44:44;;;;;;;27.17;13.88;;;22.40;27.40;;;;;;6102998;28;84822;-65
2021/03/23 03:47:45;;;;;;;29.75;15.52;;;22.40;27.30;;;;;;6101840;28;83638;-65
2021/03/23 03:50:45;;;;;;;30.33;15.30;;;22.40;27.30;;;;;;6101052;28;84503;-65
2021/03/23 03:53:46;;;;;;;28.08;15.05;;;22.40;27.30;;;;;;6101157;28;83497;-63
2021/03/23 03:56:46;;;;;;;30.60;14.95;;;22.40;27.30;;;;;;6101137;28;84161;-64
2021/03/23 03:59:48;;;;;;;28.40;14.35;;;22.40;27.30;;;;;;6098468;28;83412;-64
2021/03/23 04:02:49;;;;;;;30.00;14.68;;;22.40;27.30;;;;;;6092275;28;87258;-64
2021/03/23 04:05:49;;;;;;;25.77;14.48;;;22.40;27.30;;;;;;6096773;28;83676;-65
2021/03/23 04:08:50;;;;;;;25.13;14.23;;;22.40;27.30;;;;;;6097596;28;84159;-64
2021/03/23 04:11:50;;;;;;;24.10;13.07;;;22.40;27.40;;;;;;6101476;28;84063;-64
2021/03/23 04:14:51;;;;;;;29.40;14.43;;;22.30;27.60;;;;;;6107986;28;83347;-64
2021/03/23 04:17:52;;;;;;;29.80;14.48;;;22.40;27.50;;;;;;6093476;28;83854;-65
2021/03/23 04:20:52;;;;;;;29.05;14.15;;;22.50;27.10;;;;;;6100634;28;84370;-65
2021/03/23 04:23:53;;;;;;;27.55;14.10;;;22.50;27.00;;;;;;6101031;28;83413;-64
2021/03/23 04:26:53;;;;;;;27.65;14.20;;;22.50;26.90;;;;;;6098940;28;83965;-64
2021/03/23 04:29:54;;;;;;;28.08;14.20;;;22.50;26.80;;;;;;6082609;28;86285;-64
2021/03/23 04:32:55;;;;;;;24.63;13.80;;;22.50;26.80;;;;;;6100358;28;83998;-64
2021/03/23 04:35:55;;;;;;;27.20;13.48;;;22.60;26.70;;;;;;6101170;28;84908;-65
2021/03/23 04:38:56;;;;;;;25.40;13.95;;;22.60;26.60;;;;;;6083211;28;83582;-65
2021/03/23 04:41:56;;;;;;;27.38;14.13;;;22.60;26.50;;;;;;6093495;28;83955;-66
2021/03/23 04:44:57;;;;;;;28.00;13.48;;;22.70;26.40;;;;;;6099181;28;94380;-65
2021/03/23 04:47:58;;;;;;;26.33;14.05;;;22.70;26.50;;;;;;6099470;28;84155;-65
2021/03/23 04:50:58;;;;;;;26.15;14.43;;;22.70;26.40;;;;;;6100320;28;83280;-65
2021/03/23 04:53:59;;;;;;;29.20;12.80;;;22.70;26.30;;;;;;6101156;28;83553;-65
2021/03/23 04:56:59;;;;;;;22.83;12.70;;;22.80;26.30;;;;;;6100376;28;83256;-65
2021/03/23 05:00:00;;;;;;;26.25;13.40;;;22.80;27.00;;;;;;6100333;28;83019;-65
2021/03/23 05:03:01;;;;;;;21.80;12.68;;;22.80;26.40;;;;;;6100607;28;83386;-65
2021/03/23 05:06:06;;;;;;;22.77;12.27;;;22.80;26.40;;;;;;6079167;28;85121;-65
2021/03/23 05:09:06;;;;;;;22.52;12.05;;;22.80;26.30;;;;;;6104203;28;83180;-64
2021/03/23 05:12:07;;;;;;;22.58;12.10;;;22.80;26.30;;;;;;6096010;28;85381;-65
2021/03/23 05:15:07;;;;;;;24.45;12.63;;;22.80;26.30;;;;;;6105181;28;85356;-65
2021/03/23 05:18:08;;;;;;;24.23;12.63;;;22.90;26.30;;;;;;6102942;28;83735;-65
2021/03/23 05:21:09;;;;;;;26.52;12.50;;;22.90;26.30;;;;;;6104469;28;85399;-65
2021/03/23 05:24:09;;;;;;;19.83;11.57;;;22.90;26.20;;;;;;6104460;28;83268;-63
2021/03/23 05:27:10;;;;;;;24.70;11.77;;;22.90;26.30;;;;;;6103428;28;83206;-63
2021/03/23 05:30:10;;;;;;;25.60;12.93;;;22.90;26.20;;;;;;6080467;28;82933;-63
2021/03/23 05:33:11;;;;;;;24.92;12.63;;;22.90;26.40;;;;;;6102920;28;83454;-66
2021/03/23 05:36:12;;;;;;;28.08;13.27;;;22.90;26.40;;;;;;6086816;28;83495;-66
2021/03/23 05:39:12;;;;;;;23.05;12.77;;;22.90;26.60;;;;;;6102870;28;83128;-64
2021/03/23 05:42:13;;;;;;;23.67;11.70;;;22.90;26.80;;;;;;6105318;28;83219;-65
2021/03/23 05:45:14;;;;;;;22.60;11.93;;;22.90;27.20;;;;;;6099740;28;84204;-65
2021/03/23 05:48:15;;;;;;;22.08;11.32;;;23.00;27.20;;;;;;6103033;28;85069;-66
2021/03/23 05:51:16;;;;;;;22.42;12.15;;;22.90;27.10;;;;;;6102499;28;83853;-66
2021/03/23 05:54:17;;;;;;;24.33;12.27;;;22.90;26.90;;;;;;6104210;28;84342;-67
2021/03/23 05:57:17;;;;;;;22.73;11.57;;;22.90;26.80;;;;;;6103158;28;82864;-66
2021/03/23 06:00:18;;;;;;;24.13;13.15;;;23.00;26.80;;;;;;6103910;28;83731;-65
2021/03/23 06:03:19;;;;;;;25.60;11.43;;;23.00;26.60;;;;;;6105900;28;83452;-66
2021/03/23 06:06:19;;;;;;;21.42;12.18;;;23.00;26.50;;;;;;6105134;28;84551;-66
2021/03/23 06:09:20;;;;;;;34.15;12.98;;;23.00;26.40;;;;;;6102722;28;83999;-65
2021/03/23 06:12:21;;;;;;;23.48;13.30;;;22.90;26.20;;;;;;6096696;28;83782;-65
2021/03/23 06:15:21;;;;;;;24.48;13.48;;;23.00;26.20;;;;;;6105892;28;83249;-65
2021/03/23 06:18:22;;;;;;;36.97;16.50;;;23.00;26.10;;;;;;6095777;28;84767;-65
2021/03/23 06:21:22;;;;;;;30.05;15.38;;;23.00;27.20;;;;;;6097685;28;84366;-65
2021/03/23 06:24:23;;;;;;;29.70;13.95;;;23.00;27.70;;;;;;6104182;28;83730;-66
2021/03/23 06:27:24;;;;;;;30.55;14.68;;;23.00;27.30;;;;;;6103953;28;83377;-65
2021/03/23 06:30:24;;;;;;;28.30;15.18;;;23.00;27.70;;;;;;6103959;28;83442;-66
2021/03/23 06:33:25;;;;;;;34.05;15.73;;;22.90;28.00;;;;;;6101044;28;85083;-66
2021/03/23 06:36:25;;;;;;;27.58;13.55;;;23.00;28.30;;;;;;6101630;28;83276;-66
2021/03/23 06:39:26;;;;;;;25.35;13.75;;;23.00;28.40;;;;;;6097756;28;83635;-64
2021/03/23 06:42:26;;;;;;;29.83;14.05;;;23.00;28.70;;;;;;6099051;28;83306;-65
2021/03/23 06:45:27;;;;;;;27.70;14.50;;;23.00;28.70;;;;;;6100357;28;83981;-67
2021/03/23 06:48:28;;;;;;;27.50;13.77;;;23.10;28.90;;;;;;6106756;28;83445;-66
2021/03/23 06:51:28;;;;;;;29.00;13.93;;;23.10;29.10;;;;;;6098981;28;82878;-68
2021/03/23 06:54:29;;;;;;;25.20;12.93;;;23.10;29.30;;;;;;6101457;28;83785;-67
2021/03/23 06:57:30;;;;;;;24.67;12.88;;;23.10;29.30;;;;;;6100330;28;86773;-66
2021/03/23 07:00:30;;;;;;;31.02;13.38;;;23.10;28.90;;;;;;6095372;28;83259;-65
2021/03/23 07:03:31;;;;;;;27.33;13.02;;;23.10;28.50;;;;;;6103936;28;83387;-66
2021/03/23 07:06:31;;;;;;;23.33;12.35;;;23.10;28.20;;;;;;6099799;28;84293;-68
2021/03/23 07:09:32;;;;;;;28.48;13.95;;;23.00;28.30;;;;;;6102614;28;83426;-66
2021/03/23 07:12:33;;;;;;;21.92;11.50;;;23.00;28.10;;;;;;6103109;28;83624;-65
2021/03/23 07:15:33;;;;;;;20.90;11.48;;;23.00;28.20;;;;;;6101187;28;84006;-65
2021/03/23 07:18:34;;;;;;;20.98;11.15;;;23.00;28.20;;;;;;6100507;28;87040;-67
2021/03/23 07:21:34;;;;;;;27.40;12.00;;;23.00;28.20;;;;;;6099742;28;83046;-66
2021/03/23 07:24:35;;;;;;;23.27;11.35;;;22.90;28.30;;;;;;6103822;28;83356;-69
2021/03/23 07:27:36;;;;;;;22.35;11.20;;;22.90;28.40;;;;;;6101670;28;83910;-66
2021/03/23 07:30:36;;;;;;;27.17;11.55;;;22.90;28.40;;;;;;6102053;28;83094;-67
2021/03/23 07:33:37;;;;;;;23.35;12.57;;;23.00;28.40;;;;;;6096955;28;83249;-66
2021/03/23 07:36:39;;;;;;;22.52;11.77;;;22.90;28.10;;;;;;6099743;28;84829;-67
2021/03/23 07:39:40;;;;;;;22.75;10.93;;;23.00;28.10;;;;;;6100839;28;83574;-68
2021/03/23 07:42:40;;;;;;;20.85;10.68;;;23.00;28.20;;;;;;6100036;28;83641;-68
2021/03/23 07:45:41;;;;;;;27.70;11.45;;;23.00;28.30;;;;;;6094738;28;83420;-68
2021/03/23 07:48:41;;;;;;;30.10;12.07;;;22.90;29.10;;;;;;6082870;28;85899;-68
2021/03/23 07:51:42;;;;;;;21.30;10.63;;;22.90;28.80;;;;;;6102444;28;83387;-69
2021/03/23 07:54:43;;;;;;;19.20;9.70;;;22.90;29.30;;;;;;6103223;28;83384;-68
2021/03/23 07:57:43;;;;;;;17.80;10.23;;;22.90;28.50;;;;;;6110602;28;83879;-68
2021/03/23 08:00:44;;;;;;;22.20;10.55;;;22.90;28.80;;;;;;6083931;28;83464;-68
2021/03/23 08:03:45;;;;;;;20.33;10.27;;;23.00;28.90;;;;;;6100951;28;86272;-67
2021/03/23 08:06:45;;;;;;;22.70;10.60;;;23.00;28.60;;;;;;6094936;28;83616;-70
2021/03/23 08:09:46;;;;;;;19.60;10.20;;;23.00;28.60;;;;;;6082691;28;86547;-71
2021/03/23 08:12:46;;;;;;;20.17;10.35;;;23.00;28.90;;;;;;6077463;28;82984;-67
2021/03/23 08:15:47;;;;;;;19.58;10.07;;;23.00;28.60;;;;;;6105630;28;83588;-68
2021/03/23 08:18:48;;;;;;;18.67;9.55;;;22.90;28.80;;;;;;6102059;28;83371;-68
2021/03/23 08:21:48;;;;;;;22.60;10.65;;;23.00;29.20;;;;;;6104841;28;82824;-67
2021/03/23 08:24:49;;;;;;;23.75;11.02;;;22.90;29.30;;;;;;6102223;28;83377;-66
2021/03/23 08:27:51;;;;;;;16.65;9.70;;;22.90;29.30;;;;;;6100839;28;83398;-69
2021/03/23 08:30:51;;;;;;;22.20;10.40;;;22.90;29.20;;;;;;6104491;28;81968;-68
2021/03/23 08:33:52;;;;;;;20.40;10.20;;;22.90;30.30;;;;;;6101626;28;83303;-67
2021/03/23 08:36:53;;;;;;;21.08;10.57;;;22.90;28.40;;;;;;6096558;28;84554;-68
2021/03/23 08:39:54;;;;;;;23.88;11.80;;;22.90;28.00;;;;;;6085724;28;83567;-68
2021/03/23 08:42:56;;;;;;;19.88;10.80;;;22.90;28.20;;;;;;6098651;28;86295;-66
2021/03/23 08:45:56;;;;;;;18.98;10.55;;;22.90;28.20;;;;;;6105231;28;83336;-68
2021/03/23 08:48:57;;;;;;;18.65;10.35;;;22.90;28.00;;;;;;6106240;28;83053;-68
2021/03/23 08:51:58;;;;;;;23.77;11.85;;;22.90;27.90;;;;;;6083419;28;85464;-68
2021/03/23 08:54:59;;;;;;;20.92;10.18;;;22.90;27.80;;;;;;6105543;28;84242;-67
2021/03/23 08:58:00;;;;;;;26.52;10.95;;;23.00;27.70;;;;;;6104598;28;87649;-68
2021/03/23 09:01:01;;;;;;;695.92;264.83;;;23.00;27.80;;;;;;6090170;28;90206;-69
2021/03/23 09:04:04;;;;;;;881.83;355.52;;;23.10;28.10;;;;;;6099409;28;88059;-69
2021/03/23 09:07:05;;;;;;;1039.90;410.55;;;23.10;28.20;;;;;;6094999;28;86469;-70
2021/03/23 09:10:06;;;;;;;700.90;266.88;;;23.10;28.40;;;;;;6101430;28;86122;-68
2021/03/23 09:13:07;;;;;;;625.22;231.77;;;23.10;28.10;;;;;;6104591;28;86136;-68
2021/03/23 09:16:07;;;;;;;562.30;202.70;;;23.20;28.00;;;;;;6101766;28;86602;-68
2021/03/23 09:19:09;;;;;;;536.10;182.30;;;23.20;27.90;;;;;;6084121;28;88712;-68
2021/03/23 09:22:10;;;;;;;513.92;170.48;;;23.20;27.70;;;;;;6100399;28;85818;-68
2021/03/23 09:25:10;;;;;;;476.63;159.43;;;23.20;27.60;;;;;;6102687;28;85548;-70
2021/03/23 09:28:11;;;;;;;443.17;147.52;;;23.20;27.40;;;;;;6100653;28;85863;-69
2021/03/23 09:31:12;;;;;;;369.27;124.10;;;23.20;27.70;;;;;;6101453;28;85723;-68
2021/03/23 09:34:13;;;;;;;343.33;116.40;;;23.20;28.00;;;;;;6100165;28;85877;-67
2021/03/23 09:37:13;;;;;;;303.15;103.05;;;23.20;27.90;;;;;;6082160;28;86607;-69
2021/03/23 09:40:14;;;;;;;268.27;93.28;;;23.30;28.10;;;;;;6094069;28;86408;-69
2021/03/23 09:43:15;;;;;;;235.20;84.55;;;23.30;28.10;;;;;;6102258;28;85578;-70
2021/03/23 09:46:16;;;;;;;215.57;77.35;;;23.30;28.30;;;;;;6100898;28;84089;-70
2021/03/23 09:49:16;;;;;;;221.52;77.25;;;23.30;28.30;;;;;;6098347;28;84779;-70
2021/03/23 09:52:18;;;;;;;197.95;68.07;;;23.30;28.40;;;;;;6104744;28;83318;-70
2021/03/23 09:55:19;;;;;;;188.95;63.97;;;23.40;28.60;;;;;;6099704;28;85722;-71
2021/03/23 09:58:20;;;;;;;181.35;62.40;;;23.40;28.80;;;;;;6102487;28;83525;-71
2021/03/23 10:01:21;;;;;;;161.77;56.78;;;23.40;28.70;;;;;;6102854;28;83936;-69
2021/03/23 10:04:21;;;;;;;142.00;53.17;;;23.40;28.60;;;;;;6087191;28;84369;-67
2021/03/23 10:07:22;;;;;;;136.73;50.97;;;23.50;28.60;;;;;;6108678;28;83607;-69
2021/03/23 10:10:23;;;;;;;124.22;48.17;;;23.50;29.00;;;;;;6068739;28;84206;-68
2021/03/23 10:13:24;;;;;;;116.28;44.15;;;23.60;28.90;;;;;;6104587;28;83415;-71
2021/03/23 10:16:24;;;;;;;110.10;43.75;;;23.50;29.20;;;;;;6098239;28;84047;-69
2021/03/23 10:19:25;;;;;;;110.38;41.15;;;23.50;29.30;;;;;;6103091;28;83131;-70
2021/03/23 10:22:29;;;;;;;98.85;37.88;;;23.50;29.30;;;;;;6103965;28;83529;-69
2021/03/23 10:25:30;;;;;;;100.95;39.22;;;23.50;30.20;;;;;;6102448;28;83560;-61
2021/03/23 10:28:31;;;;;;;94.68;37.97;;;23.50;29.60;;;;;;6103779;28;83482;-66
2021/03/23 10:31:31;;;;;;;82.32;34.15;;;23.50;29.30;;;;;;6102510;28;83029;-69
2021/03/23 10:34:32;;;;;;;92.45;35.45;;;23.50;30.00;;;;;;6103546;28;83344;-68
2021/03/23 10:37:33;;;;;;;90.70;32.17;;;23.50;29.60;;;;;;6099196;28;83886;-68
2021/03/23 10:40:34;;;;;;;79.65;29.67;;;23.40;29.40;;;;;;6098125;28;83358;-68
2021/03/23 10:43:35;;;;;;;73.45;29.48;;;23.40;29.20;;;;;;6101115;28;83298;-67
2021/03/23 10:46:37;;;;;;;77.30;29.20;;;23.40;29.20;;;;;;6101712;28;86265;-68
2021/03/23 10:49:38;;;;;;;71.45;28.30;;;23.30;28.80;;;;;;6101799;28;85862;-68
2021/03/23 10:52:38;;;;;;;66.20;25.15;;;23.30;28.70;;;;;;6103128;28;83406;-67
2021/03/23 10:55:39;;;;;;;58.38;24.42;;;23.30;28.60;;;;;;6096901;28;83228;-67
2021/03/23 10:58:40;;;;;;;56.72;22.90;;;23.30;28.40;;;;;;6100852;28;83959;-66
2021/03/23 11:01:40;;;;;;;51.83;21.48;;;23.40;28.40;;;;;;6103217;28;83487;-68
2021/03/23 11:04:41;;;;;;;48.17;20.67;;;23.40;28.30;;;;;;6094998;28;85772;-67
2021/03/23 11:07:41;;;;;;;49.25;19.48;;;23.40;28.20;;;;;;6102160;28;84252;-68
2021/03/23 11:10:42;;;;;;;42.95;18.30;;;23.40;28.10;;;;;;6100741;28;83347;-68
2021/03/23 11:13:43;;;;;;;41.92;17.30;;;23.40;28.00;;;;;;6102760;28;83383;-68
2021/03/23 11:16:43;;;;;;;43.75;18.23;;;23.40;28.40;;;;;;6100890;28;83234;-69
2021/03/23 11:19:48;;;;;;;39.40;17.42;;;23.40;28.50;;;;;;6092124;28;83577;-68
2021/03/23 11:22:50;;;;;;;35.30;15.25;;;23.40;28.50;;;;;;6098312;28;83520;-68
2021/03/23 11:25:51;;;;;;;44.38;17.45;;;23.40;28.50;;;;;;6099873;28;84372;-68
2021/03/23 11:28:59;;;;;;;36.50;16.20;;;23.40;28.90;;;;;;6102952;28;83546;-67
2021/03/23 11:32:00;;;;;;;34.78;14.38;;;23.40;28.80;;;;;;6103861;28;84495;-67
2021/03/23 11:35:00;;;;;;;31.45;14.02;;;23.40;29.70;;;;;;6100304;28;83416;-68
2021/03/23 11:38:01;;;;;;;30.38;12.68;;;23.40;30.10;;;;;;6101529;28;83387;-68
2021/03/23 11:41:02;;;;;;;28.83;13.30;;;23.40;30.30;;;;;;6101346;28;82888;-68
2021/03/23 11:44:03;;;;;;;28.95;12.82;;;23.40;29.20;;;;;;6101470;28;83319;-68
2021/03/23 11:47:04;;;;;;;32.17;13.55;;;23.30;30.30;;;;;;6098602;28;83925;-70
2021/03/23 11:50:05;;;;;;;26.55;11.85;;;23.30;29.40;;;;;;6096658;28;83014;-67
2021/03/23 11:53:06;;;;;;;26.75;11.88;;;23.30;29.60;;;;;;6101249;28;84230;-68
2021/03/23 11:56:07;;;;;;;26.00;11.52;;;23.30;30.00;;;;;;6101082;28;83360;-68
2021/03/23 11:59:08;;;;;;;21.80;10.52;;;23.30;29.70;;;;;;6101213;28;83184;-65
2021/03/23 12:02:09;;;;;;;35.00;11.52;;;23.30;29.50;;;;;;6099199;28;83452;-67
2021/03/23 12:05:09;;;;;;;21.05;9.98;;;23.30;30.30;;;;;;6099119;28;83809;-65
2021/03/23 12:08:10;;;;;;;23.17;9.98;;;23.30;30.80;;;;;;6101777;28;83717;-66
2021/03/23 12:11:10;;;;;;;21.92;9.93;;;23.30;30.60;;;;;;6083455;28;86159;-66
2021/03/23 12:14:11;;;;;;;22.60;9.45;;;23.30;30.00;;;;;;6098649;28;83109;-66
2021/03/23 12:17:12;;;;;;;24.27;10.00;;;23.30;29.70;;;;;;6094154;28;82022;-66
2021/03/23 12:20:15;;;;;;;20.48;8.82;;;23.30;30.00;;;;;;6082202;28;83522;-65
2021/03/23 12:23:15;;;;;;;19.65;8.32;;;23.30;29.50;;;;;;6104590;28;82846;-65
2021/03/23 12:26:16;;;;;;;17.70;8.48;;;23.30;29.20;;;;;;6102090;28;81120;-64
2021/03/23 12:29:17;;;;;;;20.10;8.35;;;23.30;29.50;;;;;;6102004;28;81415;-65
2021/03/23 12:32:18;;;;;;;14.52;7.97;;;23.30;29.20;;;;;;6100406;28;80957;-66
2021/03/23 12:35:18;;;;;;;16.75;7.80;;;23.30;29.60;;;;;;6077065;28;81212;-64
2021/03/23 12:38:19;;;;;;;19.05;7.65;;;23.30;29.20;;;;;;6094197;28;80782;-66
2021/03/23 12:41:20;;;;;;;14.82;7.03;;;23.30;29.50;;;;;;6102566;28;80777;-65
2021/03/23 12:44:21;;;;;;;15.85;7.32;;;23.30;29.40;;;;;;6097447;28;81996;-65
2021/03/23 12:47:22;;;;;;;14.50;6.47;;;23.20;29.30;;;;;;6102180;28;81467;-65
2021/03/23 12:50:23;;;;;;;13.70;6.93;;;23.20;29.50;;;;;;6108733;28;80674;-66
2021/03/23 12:53:23;;;;;;;14.30;7.00;;;23.20;29.00;;;;;;6104466;28;80524;-66
2021/03/23 12:56:24;;;;;;;11.02;6.07;;;23.20;29.10;;;;;;6101806;28;83670;-67
2021/03/23 12:59:25;;;;;;;16.80;6.60;;;23.30;28.90;;;;;;6096996;28;82984;-68
2021/03/23 13:02:25;;;;;;;14.30;7.03;;;23.20;29.00;;;;;;6101122;28;80206;-69
2021/03/23 13:05:26;;;;;;;11.90;6.03;;;23.20;29.10;;;;;;6101458;28;82000;-69
2021/03/23 13:08:28;;;;;;;11.07;5.18;;;23.20;28.90;;;;;;6100900;28;81168;-68
2021/03/23 13:11:29;;;;;;;13.07;6.10;;;23.20;28.60;;;;;;6102421;28;80887;-68
2021/03/23 13:14:29;;;;;;;11.48;5.93;;;23.20;28.30;;;;;;6099789;28;80672;-69
2021/03/23 13:17:30;;;;;;;15.48;6.70;;;23.20;28.50;;;;;;6101876;28;81830;-67
2021/03/23 13:20:31;;;;;;;15.05;7.35;;;23.20;28.60;;;;;;6102472;28;81407;-68
2021/03/23 13:23:31;;;;;;;13.80;7.68;;;23.20;28.70;;;;;;6100939;28;81109;-68
2021/03/23 13:26:32;;;;;;;14.35;7.47;;;23.20;28.80;;;;;;6103777;28;80449;-67
2021/03/23 13:29:33;;;;;;;11.60;7.10;;;23.20;28.80;;;;;;6101137;28;81831;-67
2021/03/23 13:32:33;;;;;;;17.50;8.20;;;23.20;28.80;;;;;;6102067;28;80448;-67
2021/03/23 13:35:34;;;;;;;15.80;8.50;;;23.20;28.80;;;;;;6111951;28;80996;-68
2021/03/23 13:38:35;;;;;;;13.35;8.00;;;23.20;28.80;;;;;;6099095;28;80903;-67
2021/03/23 13:41:35;;;;;;;15.68;7.90;;;23.20;28.80;;;;;;6101560;28;80835;-66
2021/03/23 13:44:36;;;;;;;17.67;7.72;;;23.30;28.80;;;;;;6105524;28;82712;-66
2021/03/23 13:47:37;;;;;;;16.17;8.63;;;23.20;28.70;;;;;;6105128;28;80798;-66
2021/03/23 13:50:37;;;;;;;16.48;9.23;;;23.30;28.80;;;;;;6102475;28;81435;-70
2021/03/23 13:53:39;;;;;;;16.40;8.80;;;23.30;28.90;;;;;;6089468;28;81697;-67
2021/03/23 13:56:40;;;;;;;16.52;9.30;;;23.30;29.70;;;;;;6107164;28;80387;-68
2021/03/23 13:59:40;;;;;;;17.33;8.23;;;23.30;29.70;;;;;;6099721;28;81587;-68
2021/03/23 14:02:41;;;;;;;14.55;7.55;;;23.30;29.60;;;;;;6106179;28;80452;-69
2021/03/23 14:05:41;;;;;;;15.45;8.07;;;23.30;29.90;;;;;;6104142;28;81616;-68
2021/03/23 14:08:42;;;;;;;11.90;6.88;;;23.30;30.30;;;;;;6089871;28;81750;-68
2021/03/23 14:11:43;;;;;;;12.27;6.72;;;23.30;30.40;;;;;;6103400;28;81207;-65
2021/03/23 14:14:43;;;;;;;15.57;7.85;;;23.40;30.20;;;;;;6087366;28;83606;-67
2021/03/23 14:17:44;;;;;;;15.38;8.38;;;23.40;30.00;;;;;;6101327;28;81311;-68
2021/03/23 14:20:45;;;;;;;16.30;7.88;;;23.40;30.40;;;;;;6086073;28;80613;-66
2021/03/23 14:23:47;;;;;;;12.80;7.30;;;23.40;30.50;;;;;;6102506;28;82480;-68
2021/03/23 14:26:48;;;;;;;13.82;7.38;;;23.40;30.40;;;;;;6101099;28;81353;-67
2021/03/23 14:29:48;;;;;;;16.58;8.20;;;23.40;30.80;;;;;;6102758;28;81580;-68
2021/03/23 14:32:49;;;;;;;16.65;8.63;;;23.40;30.60;;;;;;6098652;28;81428;-67
2021/03/23 14:35:50;;;;;;;14.68;7.95;;;23.40;30.80;;;;;;6102089;28;80538;-67
2021/03/23 14:38:50;;;;;;;14.48;7.93;;;23.40;30.70;;;;;;6089831;28;81096;-68
2021/03/23 14:41:51;;;;;;;15.20;7.93;;;23.40;30.70;;;;;;6102841;28;81789;-67
2021/03/23 14:44:52;;;;;;;13.85;7.65;;;23.40;30.30;;;;;;6103332;28;81203;-69
2021/03/23 14:47:52;;;;;;;15.13;8.10;;;23.50;30.40;;;;;;6104504;28;82724;-69
2021/03/23 14:50:53;;;;;;;16.35;7.50;;;23.50;30.90;;;;;;6104579;28;80947;-69
2021/03/23 14:53:53;;;;;;;15.48;7.60;;;23.50;30.30;;;;;;6095833;28;80918;-69
2021/03/23 14:56:54;;;;;;;15.02;8.05;;;23.40;30.80;;;;;;6103015;28;81360;-71
2021/03/23 14:59:55;;;;;;;17.55;8.20;;;23.40;30.50;;;;;;6101167;28;81459;-71
2021/03/23 15:02:55;;;;;;;19.65;8.65;;;23.50;31.10;;;;;;6104309;28;80446;-72
2021/03/23 15:05:56;;;;;;;19.23;9.05;;;23.50;31.20;;;;;;6102988;28;83277;-68
2021/03/23 15:08:56;;;;;;;18.88;8.63;;;23.50;31.30;;;;;;6105746;28;82848;-66
2021/03/23 15:11:57;;;;;;;17.08;9.02;;;23.50;31.50;;;;;;6106475;28;80627;-65
2021/03/23 15:14:58;;;;;;;18.20;8.80;;;23.50;31.60;;;;;;6104871;28;83268;-65
2021/03/23 15:17:58;;;;;;;17.05;8.82;;;23.50;31.30;;;;;;6107379;28;81009;-65